Latest Weather Observations for Kuitpo

IDS60801

Issued at 10:01 am CST Monday 21 August 2017 (issued every 30 minutes, with the page automatically refreshed every 10 minutes)

About weather observations | Map of weather stations | Latest weather observations for SA | Other Formats
Station Details ID: 023887 Name: KUITPO FOREST RESERVE Lat: -35.17 Lon: 138.68 Height: 365.0 m
Data from the previous 72 hours. | See also: Recent months at Kuitpo
Date/Time
CST
Temp
°C
App
Temp
°C
Dew
Point
°C
Rel
Hum
%
Delta-T
°C
Wind Press
QNH
hPa
Press
MSL
hPa
Rain since
9am
mm
Dir  Spd
km/h
Gust
km/h
Spd
kts
Gust
kts
21/10:00am 8.3 5.6 7.5 95 0.4 N 11 17 6 9 1007.1 1007.2 0.0
21/09:30am 7.7 4.9 7.0 95 0.3 N 11 22 6 12 1007.1 1007.2 0.0
21/09:00am 7.4 4.1 6.5 94 0.4 NNW 13 26 7 14 1006.8 1006.9 10.0
21/08:30am 7.2 3.9 6.3 94 0.4 N 13 28 7 15 1006.5 1006.6 10.0
21/08:00am 6.5 3.0 5.5 93 0.5 N 13 26 7 14 1006.1 1006.2 10.0
21/07:30am 6.6 2.7 5.2 91 0.6 N 15 28 8 15 1005.9 1006.0 10.0
21/07:00am 6.5 1.9 5.5 93 0.5 NNE 19 30 10 16 1005.5 1005.6 10.0
21/06:30am 6.3 2.0 5.1 92 0.5 N 17 28 9 15 1005.3 1005.4 9.8
21/06:00am 6.0 1.6 4.5 90 0.7 N 17 39 9 21 1005.4 1005.5 9.6
21/05:30am 6.2 1.1 4.2 87 0.9 N 20 37 11 20 1005.3 1005.4 9.2
21/05:00am 6.0 0.9 4.3 89 0.7 N 20 32 11 17 1005.2 1005.3 8.8
21/04:30am 6.1 1.5 3.9 86 1.0 N 17 26 9 14 1005.9 1006.0 8.0
21/04:00am 7.2 2.1 3.1 75 1.8 NNW 19 37 10 20 1006.1 1006.2 7.0
21/03:30am 9.4 3.3 0.6 54 3.7 NNW 22 39 12 21 1006.0 1006.1 6.8
21/03:00am 9.7 3.9 0.1 51 4.0 N 20 43 11 23 1005.6 1005.7 6.8
21/02:30am 9.4 3.6 -0.2 51 3.9 N 20 35 11 19 1005.9 1006.0 6.8
21/02:00am 9.2 3.1 0.4 54 3.6 N 22 48 12 26 1006.2 1006.3 6.8
21/01:30am 8.6 3.5 0.8 58 3.2 N 17 32 9 17 1007.0 1007.1 6.8
21/01:00am 8.5 3.0 1.6 62 2.9 N 20 37 11 20 1007.4 1007.6 6.8
21/12:30am 8.0 3.6 2.5 68 2.4 N 15 24 8 13 1008.1 1008.2 6.8
21/12:00am 7.5 2.4 3.0 73 1.9 N 19 35 10 19 1008.4 1008.5 6.8
 
Date/Time
CST
Temp
°C
App
Temp
°C
Dew
Point
°C
Rel
Hum
%
Delta-T
°C
Wind Press
QNH
hPa
Press
MSL
hPa
Rain since
9am
mm
Dir  Spd
km/h
Gust
km/h
Spd
kts
Gust
kts
20/11:30pm 6.9 2.3 3.5 79 1.5 NNE 17 32 9 17 1008.9 1009.0 6.8
20/11:00pm 6.4 2.7 4.7 89 0.8 NE 13 19 7 10 1009.8 1010.0 6.8
20/10:30pm 6.7 3.1 5.2 90 0.7 NNE 13 28 7 15 1010.5 1010.6 6.8
20/10:00pm 6.5 1.9 5.5 93 0.5 NNE 19 39 10 21 1011.0 1011.1 6.8
20/09:30pm 6.2 2.7 5.6 96 0.3 NNE 13 22 7 12 1011.5 1011.6 6.6
20/09:00pm 5.6 1.6 4.9 95 0.3 NNE 15 24 8 13 1011.9 1012.0 6.2
20/08:30pm 5.5 0.7 4.8 95 0.3 NNE 19 32 10 17 1011.8 1011.9 6.0
20/08:00pm 5.3 0.3 4.6 95 0.3 NE 20 39 11 21 1011.8 1011.9 6.0
20/07:30pm 5.1 -0.7 4.4 95 0.3 NE 24 44 13 24 1012.0 1012.2 5.8
20/07:00pm 5.5 0.1 4.6 94 0.4 NE 22 35 12 19 1012.3 1012.5 5.6
20/06:30pm 6.0 1.6 5.0 93 0.4 NNE 17 30 9 16 1013.6 1013.7 4.0
20/06:00pm 6.5 3.3 5.1 91 0.6 N 11 22 6 12 1014.4 1014.6 2.6
20/05:30pm 7.0 2.9 4.5 84 1.1 N 15 26 8 14 1013.9 1014.0 1.4
20/05:00pm 7.7 4.8 4.7 81 1.3 NNE 9 17 5 9 1013.7 1013.8 0.6
20/04:30pm 8.2 5.5 3.9 74 1.9 N 7 13 4 7 1013.6 1013.7 0.4
20/04:00pm 9.4 5.0 2.5 62 3.0 NE 15 24 8 13 1013.6 1013.7 0.0
20/03:30pm 9.4 4.5 2.3 61 3.1 NE 17 26 9 14 1013.2 1013.4 0.0
20/03:00pm 9.7 4.8 2.3 60 3.2 NE 17 28 9 15 1013.5 1013.6 0.0
20/02:30pm 10.0 6.0 2.6 60 3.2 NNE 13 22 7 12 1014.5 1014.7 0.0
20/02:00pm 10.4 6.5 3.2 61 3.2 N 13 22 7 12 1015.5 1015.7 0.0
20/01:30pm 10.7 5.5 2.5 57 3.6 NNE 19 28 10 15 1015.2 1015.4 0.0
20/01:00pm 11.9 7.3 3.7 57 3.7 NNE 17 28 9 15 1015.8 1016.0 0.0
20/12:30pm 12.3 7.6 3.0 53 4.2 NNE 17 33 9 18 1016.9 1017.1 0.0
20/12:00pm 12.4 7.6 2.8 52 4.3 NNE 17 28 9 15 1018.1 1018.3 0.0
20/11:30am 11.9 6.6 2.9 54 4.0 NNE 20 32 11 17 1018.8 1019.0 0.0
20/11:00am 11.5 6.5 3.8 59 3.5 NNE 19 33 10 18 1019.7 1019.9 0.0
20/10:30am 10.2 4.5 2.8 60 3.2 NE 22 33 12 18 1019.8 1020.0 0.0
20/10:00am 9.6 3.8 2.2 60 3.2 NE 22 37 12 20 1020.3 1020.5 0.0
20/09:30am 8.7 2.5 2.3 64 2.7 NE 24 41 13 22 1020.8 1021.0 0.0
20/09:00am 7.2 1.9 1.9 69 2.2 NE 19 33 10 18 1021.4 1021.7 0.0
20/08:30am 6.7 1.2 1.6 70 2.1 NE 20 35 11 19 1021.6 1021.9 0.0
20/08:00am 5.6 -0.8 1.0 72 1.9 NE 24 39 13 21 1021.5 1021.8 0.0
20/07:30am 5.1 -1.3 0.9 74 1.7 NE 24 37 13 20 1022.0 1022.2 0.0
20/07:00am 4.9 -1.2 0.7 74 1.7 NE 22 37 12 20 1021.6 1021.9 0.0
20/06:30am 4.8 -1.7 0.6 74 1.7 NE 24 32 13 17 1021.8 1022.1 0.0
20/06:00am 4.4 -1.3 0.6 76 1.5 NE 20 30 11 16 1022.4 1022.6 0.0
20/05:30am 4.3 -1.7 0.8 78 1.4 NE 22 33 12 18 1022.2 1022.4 0.0
20/05:00am 4.3 -1.3 1.2 80 1.2 NE 20 30 11 16 1022.8 1023.0 0.0
20/04:30am 4.3 -1.6 1.7 83 1.0 NE 22 30 12 16 1022.6 1022.8 0.0
20/04:00am 4.1 -1.1 2.3 88 0.7 NE 19 28 10 15 1022.9 1023.1 0.0
20/03:30am 4.1 -1.1 2.5 89 0.7 NE 19 24 10 13 1023.0 1023.2 0.0
20/03:00am 4.3 -1.1 2.5 88 0.7 NE 20 28 11 15 1023.1 1023.3 0.0
20/02:30am 4.4 -0.4 2.8 89 0.7 ENE 17 22 9 12 1023.5 1023.7 0.0
20/02:00am 4.7 0.0 3.0 89 0.7 ENE 17 22 9 12 1023.7 1024.0 0.0
20/01:30am 4.8 0.4 2.8 87 0.8 ENE 15 20 8 11 1024.0 1024.3 0.0
20/01:00am 5.0 0.3 3.2 88 0.8 ENE 17 20 9 11 1024.3 1024.6 0.0
20/12:30am 5.0 0.7 3.2 88 0.8 ENE 15 20 8 11 1024.6 1024.9 0.0
20/12:00am 5.2 0.9 3.4 88 0.8 ENE 15 20 8 11 1025.0 1025.2 0.0
 
Date/Time
CST
Temp
°C
App
Temp
°C
Dew
Point
°C
Rel
Hum
%
Delta-T
°C
Wind Press
QNH
hPa
Press
MSL
hPa
Rain since
9am
mm
Dir  Spd
km/h
Gust
km/h
Spd
kts
Gust
kts
19/11:30pm 5.4 1.1 3.3 86 0.9 ENE 15 20 8 11 1025.2 1025.4 0.0
19/11:00pm 5.9 1.6 3.1 82 1.2 ENE 15 20 8 11 1025.3 1025.5 0.0
19/10:30pm 6.2 1.5 3.0 80 1.4 E 17 20 9 11 1025.5 1025.7 0.0
19/10:00pm 6.2 1.5 3.0 80 1.4 E 17 22 9 12 1025.6 1025.8 0.0
19/09:30pm 6.0 1.3 3.3 83 1.1 E 17 20 9 11 1025.8 1026.0 0.0
19/09:00pm 6.0 1.7 3.2 82 1.2 E 15 17 8 9 1026.0 1026.3 0.0
19/08:30pm 6.3 1.6 3.1 80 1.4 ESE 17 22 9 12 1025.9 1026.2 0.0
19/08:00pm 6.3 2.0 3.5 82 1.2 ESE 15 19 8 10 1026.2 1026.5 0.0
19/07:30pm 6.5 2.2 3.5 81 1.3 ESE 15 19 8 10 1026.2 1026.5 0.0
19/07:00pm 6.3 2.5 4.0 85 1.0 ESE 13 17 7 9 1026.3 1026.6 0.0
19/06:30pm 7.0 3.6 4.0 81 1.3 SE 11 17 6 9 1026.4 1026.7 0.0
19/06:00pm 7.7 3.9 3.7 76 1.7 ESE 13 17 7 9 1026.2 1026.5 0.0
19/05:30pm 8.2 4.4 4.0 75 1.9 ESE 13 17 7 9 1026.0 1026.3 0.0
19/05:00pm 8.6 5.5 3.8 72 2.1 ESE 9 13 5 7 1025.9 1026.2 0.0
19/04:30pm 9.8 6.8 4.0 67 2.6 SE 9 15 5 8 1025.8 1026.0 0.0
19/04:00pm 9.7 6.9 3.4 65 2.8 ESE 7 11 4 6 1025.6 1025.8 0.0
19/03:30pm 10.6 6.6 2.9 59 3.4 ESE 13 20 7 11 1025.4 1025.6 0.0
19/03:00pm 10.4 6.5 3.2 61 3.2 ESE 13 19 7 10 1025.7 1025.9 0.0
19/02:30pm 11.1 8.5 4.1 62 3.2 E 7 13 4 7 1026.0 1026.3 0.0
19/02:00pm 10.2 6.4 3.7 64 2.9 ESE 13 19 7 10 1026.2 1026.5 0.0
19/01:30pm 10.6 7.5 3.4 61 3.2 ESE 9 15 5 8 1026.5 1026.8 0.0
19/01:00pm 11.2 8.8 4.4 63 3.1 E 6 13 3 7 1026.8 1027.1 0.0
19/12:30pm 10.2 7.3 4.4 67 2.6 SE 9 17 5 9 1027.4 1027.7 0.0
19/12:00pm 11.0 7.4 5.1 67 2.7 E 13 20 7 11 1027.8 1028.0 0.0
19/11:30am 9.2 5.0 5.8 79 1.6 ESE 17 22 9 12 1028.1 1028.3 0.0
19/11:00am 10.5 7.6 4.4 66 2.8 SSW 9 17 5 9 1028.2 1028.4 0.0
19/10:30am 10.1 6.8 4.7 69 2.5 SSW 11 19 6 10 1028.3 1028.6 0.0
19/10:00am 8.5 4.8 4.5 76 1.8 SE 13 20 7 11 1028.4 1028.7 0.0
19/09:30am 9.1 6.7 4.3 72 2.1 W 6 9 3 5 1028.4 1028.7 0.0
19/09:00am 8.3 5.7 4.3 76 1.8 WSW 7 9 4 5 1028.3 1028.6 1.4
19/08:30am 7.5 5.0 3.6 76 1.7 S 6 7 3 4 1028.0 1028.2 1.4
19/08:00am 6.2 3.1 3.4 82 1.2 S 9 11 5 6 1027.6 1027.9 1.4
19/07:30am 5.5 1.9 3.2 85 1.0 SSW 11 15 6 8 1027.1 1027.4 1.4
19/07:00am 5.2 2.1 3.4 88 0.8 SW 9 13 5 7 1026.7 1027.0 1.4
19/06:30am 5.4 1.9 3.6 88 0.8 WSW 11 13 6 7 1026.5 1026.8 1.4
19/06:00am 5.2 2.1 3.7 90 0.6 WSW 9 11 5 6 1026.0 1026.3 1.4
19/05:30am 5.0 1.9 3.5 90 0.6 SW 9 13 5 7 1025.8 1026.0 1.4
19/05:00am 4.8 1.2 3.1 89 0.7 SW 11 13 6 7 1025.5 1025.7 1.4
19/04:30am 5.5 2.1 4.0 90 0.6 WSW 11 13 6 7 1025.2 1025.4 1.4
19/04:00am 5.5 2.4 3.8 89 0.7 W 9 11 5 6 1025.0 1025.2 1.4
19/03:30am 5.4 2.7 3.9 90 0.6 SW 7 9 4 5 1024.9 1025.1 1.4
19/03:00am 5.2 2.2 3.9 91 0.6 SW 9 11 5 6 1025.0 1025.2 1.4
19/02:30am 5.5 2.9 4.0 90 0.6 W 7 9 4 5 1025.0 1025.2 1.4
19/02:00am 5.7 2.7 4.0 89 0.7 SSW 9 13 5 7 1025.1 1025.3 1.4
19/01:30am 6.4 3.9 4.6 88 0.8 WSW 7 11 4 6 1025.1 1025.3 1.4
19/01:00am 6.3 3.4 4.5 88 0.8 SW 9 15 5 8 1025.0 1025.2 1.4
19/12:30am 6.4 2.7 4.6 88 0.8 SW 13 19 7 10 1024.9 1025.1 1.4
19/12:00am 6.4 3.1 4.4 87 0.9 SW 11 17 6 9 1025.0 1025.2 1.4
 
Date/Time
CST
Temp
°C
App
Temp
°C
Dew
Point
°C
Rel
Hum
%
Delta-T
°C
Wind Press
QNH
hPa
Press
MSL
hPa
Rain since
9am
mm
Dir  Spd
km/h
Gust
km/h
Spd
kts
Gust
kts
18/11:30pm 6.7 2.3 4.5 86 1.0 SW 17 24 9 13 1025.0 1025.2 1.4
18/11:00pm 6.6 2.5 4.1 84 1.1 SW 15 22 8 12 1024.9 1025.1 1.4
18/10:30pm 6.8 2.3 4.1 83 1.2 SW 17 26 9 14 1024.7 1025.0 1.4
18/10:00pm 6.9 2.0 4.2 83 1.2 SW 19 26 10 14 1024.7 1025.0 1.4
18/09:30pm 6.7 2.7 4.9 88 0.8 SW 15 24 8 13 1024.7 1025.0 1.4
18/09:00pm 6.9 2.1 4.7 86 1.0 WSW 19 30 10 16 1024.4 1024.7 1.4
18/08:30pm 6.5 2.0 4.0 84 1.1 WSW 17 24 9 13 1024.3 1024.6 1.4
18/08:00pm 7.1 3.0 4.2 82 1.3 SW 15 20 8 11 1024.1 1024.4 1.4
18/07:30pm 7.2 2.6 3.8 79 1.5 SW 17 24 9 13 1023.9 1024.2 1.4
18/07:00pm 7.6 2.4 3.3 74 1.9 SW 20 32 11 17 1023.6 1023.9 1.4
18/06:30pm 7.7 3.5 3.7 76 1.7 SW 15 20 8 11 1023.4 1023.6 1.4
18/06:00pm 8.3 3.0 3.0 69 2.3 SW 20 32 11 17 1023.0 1023.2 1.4
18/05:30pm 8.9 3.9 4.7 75 1.9 WSW 20 41 11 22 1022.5 1022.7 1.4
18/05:00pm 9.4 4.4 4.4 71 2.3 WSW 20 35 11 19 1022.3 1022.5 1.4
18/04:30pm 9.8 3.9 4.0 67 2.6 WSW 24 35 13 19 1022.0 1022.2 1.4
18/04:00pm 9.8 4.0 4.2 68 2.5 WSW 24 39 13 21 1021.8 1022.1 1.4
18/03:30pm 9.5 4.7 4.9 73 2.1 WSW 19 33 10 18 1021.7 1022.0 1.4
18/03:00pm 9.5 4.0 6.0 79 1.6 WSW 24 43 13 23 1021.3 1021.6 1.4
18/02:30pm 10.3 4.8 5.9 74 2.1 WSW 24 39 13 21 1021.1 1021.3 0.6
18/02:00pm 10.6 4.6 5.4 70 2.4 WSW 26 37 14 20 1021.0 1021.2 0.6
18/01:30pm 8.4 1.2 4.8 78 1.6 WSW 32 54 17 29 1021.0 1021.2 0.6
18/01:07pm 10.0 3.1 4.8 70 2.4 WSW 30 48 16 26 1020.7 1020.9 0.6
18/01:00pm 9.9 3.5 5.1 72 2.2 WSW 28 43 15 23 1020.7 1020.9 0.6
18/12:30pm 7.9 3.2 6.0 88 0.9 WSW 20 33 11 18 1021.1 1021.3 0.6
18/12:03pm 9.7 3.2 4.5 70 2.4 WSW 28 59 15 32 1020.9 1021.1 0.2
18/12:00pm 10.0 3.5 4.8 70 2.4 WSW 28 43 15 23 1020.9 1021.1 0.2
18/11:30am 9.7 2.4 4.3 69 2.4 WSW 32 50 17 27 1020.7 1020.9 0.2
18/11:14am 9.6 3.2 5.0 73 2.1 WSW 28 46 15 25 1020.7 1020.9 0.0
18/11:00am 9.5 2.0 4.3 70 2.3 WSW 33 50 18 27 1020.6 1020.8 0.0
18/10:30am 9.5 3.0 4.5 71 2.3 WSW 28 46 15 25 1020.4 1020.6 0.0

Other Formats:

Comma delimited format used in spreadsheet applications
http://www.bom.gov.au/fwo/IDS60801/IDS60801.94683.axf

JavaScript Object Notation format (JSON) in row-major order
http://www.bom.gov.au/fwo/IDS60801/IDS60801.94683.json